createdAt,value
2017-10-10T00:00:58.975Z,0
2017-10-10T00:02:20.886Z,0
2017-10-10T00:03:42.748Z,0
2017-10-10T00:05:03.918Z,0
2017-10-10T00:06:25.466Z,0
2017-10-10T00:07:47.667Z,0
2017-10-10T00:09:09.861Z,0
2017-10-10T00:10:32.069Z,0
2017-10-10T00:11:54.646Z,0
2017-10-10T00:13:16.828Z,0
2017-10-10T00:14:39.039Z,0
2017-10-10T00:16:00.886Z,0
2017-10-10T00:17:23.088Z,0
2017-10-10T00:18:45.678Z,0
2017-10-10T00:20:07.668Z,0
2017-10-10T00:21:29.872Z,0
2017-10-10T00:22:52.435Z,0
2017-10-10T00:24:14.306Z,0
2017-10-10T00:25:36.187Z,0
2017-10-10T00:26:58.759Z,0
2017-10-10T00:28:20.389Z,0
2017-10-10T00:29:42.600Z,0
2017-10-10T00:31:04.133Z,0
2017-10-10T00:32:26.446Z,0
2017-10-10T00:33:48.700Z,0
2017-10-10T00:35:11.219Z,0
2017-10-10T00:36:33.392Z,0
2017-10-10T00:37:55.238Z,0
2017-10-10T00:39:17.437Z,0
2017-10-10T00:40:39.959Z,0
2017-10-10T00:42:02.226Z,0
2017-10-10T00:43:24.408Z,0
2017-10-10T00:44:47.037Z,0
2017-10-10T00:46:08.915Z,0
2017-10-10T00:47:31.088Z,0
2017-10-10T00:48:53.616Z,0
2017-10-10T00:50:16.208Z,0
2017-10-10T00:51:38.376Z,0
2017-10-10T00:53:00.570Z,0
2017-10-10T00:54:22.435Z,0
2017-10-10T00:55:44.970Z,0
2017-10-10T00:57:07.167Z,0
2017-10-10T00:58:29.347Z,0
2017-10-10T00:59:51.528Z,0
2017-10-10T01:01:14.067Z,0
2017-10-10T01:02:36.276Z,0
2017-10-10T01:03:58.117Z,0
2017-10-10T01:05:20.641Z,0
2017-10-10T01:06:43.167Z,0
2017-10-10T01:08:05.354Z,0
2017-10-10T01:09:27.549Z,0
2017-10-10T01:10:49.406Z,0
2017-10-10T01:12:11.596Z,0
2017-10-10T01:13:33.115Z,0
2017-10-10T01:14:54.625Z,0
2017-10-10T01:16:16.600Z,0
2017-10-10T01:17:38.868Z,0
2017-10-10T01:19:01.374Z,0
2017-10-10T01:20:23.560Z,0
2017-10-10T01:21:45.408Z,0
2017-10-10T01:23:07.666Z,0
2017-10-10T01:24:28.875Z,0
2017-10-10T01:25:50.396Z,0
2017-10-10T01:27:12.589Z,0
2017-10-10T01:28:34.725Z,0
2017-10-10T01:29:56.923Z,0
2017-10-10T01:31:19.115Z,0
2017-10-10T01:32:40.974Z,0
2017-10-10T01:34:03.851Z,0
2017-10-10T01:35:25.366Z,0
2017-10-10T01:36:47.626Z,0
2017-10-10T01:38:09.483Z,0
2017-10-10T01:39:31.327Z,0
2017-10-10T01:40:52.965Z,0
2017-10-10T01:42:14.816Z,0
2017-10-10T01:43:37.313Z,0
2017-10-10T01:45:00.377Z,0
2017-10-10T01:46:22.235Z,0
2017-10-10T01:47:44.105Z,0
2017-10-10T01:49:05.945Z,0
2017-10-10T01:50:27.485Z,0
2017-10-10T01:51:49.326Z,0
2017-10-10T01:53:11.506Z,0
2017-10-10T01:54:33.692Z,0
2017-10-10T01:55:56.292Z,0
2017-10-10T01:57:18.144Z,0
2017-10-10T01:58:40.676Z,0
2017-10-10T02:00:02.874Z,0
2017-10-10T02:01:24.632Z,0
2017-10-10T02:02:46.470Z,0
2017-10-10T02:04:07.989Z,0
2017-10-10T02:05:30.157Z,0
2017-10-10T02:06:52.487Z,0
2017-10-10T02:08:14.322Z,0
2017-10-10T02:09:35.876Z,0
2017-10-10T02:10:58.396Z,0
2017-10-10T02:12:20.596Z,0
2017-10-10T02:13:42.766Z,0
2017-10-10T02:15:04.971Z,0
2017-10-10T02:16:26.152Z,0
2017-10-10T02:17:48.000Z,0
2017-10-10T02:19:10.176Z,0
2017-10-10T02:20:32.026Z,0
2017-10-10T02:21:54.309Z,0
2017-10-10T02:23:16.517Z,0
2017-10-10T02:24:38.050Z,0
2017-10-10T02:25:59.902Z,0
2017-10-10T02:27:22.200Z,0
2017-10-10T02:28:44.311Z,0
2017-10-10T02:30:06.827Z,0
2017-10-10T02:31:28.666Z,0
2017-10-10T02:32:51.247Z,0
2017-10-10T02:34:13.766Z,0
2017-10-10T02:35:35.606Z,0
2017-10-10T02:36:58.126Z,0
2017-10-10T02:38:20.020Z,0
2017-10-10T02:39:42.909Z,0
2017-10-10T02:41:04.765Z,0
2017-10-10T02:42:26.949Z,0
2017-10-10T02:43:48.462Z,0
2017-10-10T02:45:11.001Z,0
2017-10-10T02:46:33.195Z,0
2017-10-10T02:47:55.709Z,0
2017-10-10T02:49:17.987Z,0
2017-10-10T02:50:39.869Z,0
2017-10-10T02:52:01.728Z,0
2017-10-10T02:53:23.913Z,0
2017-10-10T02:54:45.414Z,0
2017-10-10T02:56:08.187Z,0
2017-10-10T02:57:30.102Z,0
2017-10-10T02:58:52.616Z,0
2017-10-10T03:00:15.186Z,0
2017-10-10T03:01:37.148Z,0
2017-10-10T03:02:58.997Z,0
2017-10-10T03:04:20.886Z,0
2017-10-10T03:05:43.068Z,0
2017-10-10T03:07:05.592Z,0
2017-10-10T03:08:27.472Z,0
2017-10-10T03:09:49.087Z,0
2017-10-10T03:11:10.713Z,0
2017-10-10T03:12:32.927Z,0
2017-10-10T03:13:54.811Z,0
2017-10-10T03:15:16.665Z,0
2017-10-10T03:16:38.190Z,0
2017-10-10T03:17:59.745Z,0
2017-10-10T03:19:21.275Z,0
2017-10-10T03:20:42.789Z,0
2017-10-10T03:22:04.326Z,0
2017-10-10T03:23:26.579Z,0
2017-10-10T03:24:48.776Z,0
2017-10-10T03:26:10.976Z,0
2017-10-10T03:27:32.845Z,0
2017-10-10T03:28:54.687Z,0
2017-10-10T03:30:16.250Z,0
2017-10-10T03:31:38.785Z,0
2017-10-10T03:33:00.971Z,0
2017-10-10T03:34:23.706Z,0
2017-10-10T03:35:45.225Z,0
2017-10-10T03:37:07.404Z,0
2017-10-10T03:38:29.611Z,0
2017-10-10T03:39:51.463Z,0
2017-10-10T03:41:12.666Z,0
2017-10-10T03:42:34.189Z,0
2017-10-10T03:43:56.385Z,0
2017-10-10T03:45:18.657Z,0
2017-10-10T03:46:40.501Z,0
2017-10-10T03:48:02.351Z,0
2017-10-10T03:49:23.879Z,0
2017-10-10T03:50:46.087Z,0
2017-10-10T03:52:08.700Z,0
2017-10-10T03:53:31.224Z,0
2017-10-10T03:54:53.406Z,0
2017-10-10T03:56:15.273Z,0
2017-10-10T03:57:36.798Z,0
2017-10-10T03:58:59.187Z,0
2017-10-10T04:00:21.027Z,0
2017-10-10T04:01:43.325Z,0
2017-10-10T04:03:05.564Z,0
2017-10-10T04:04:28.087Z,0
2017-10-10T04:05:49.604Z,0
2017-10-10T04:07:11.141Z,0
2017-10-10T04:08:33.414Z,0
2017-10-10T04:09:55.265Z,0
2017-10-10T04:11:17.176Z,0
2017-10-10T04:12:39.758Z,0
2017-10-10T04:14:01.622Z,0
2017-10-10T04:15:23.146Z,0
2017-10-10T04:16:45.005Z,0
2017-10-10T04:18:07.214Z,0
2017-10-10T04:19:29.081Z,0
2017-10-10T04:20:51.593Z,0
2017-10-10T04:22:13.115Z,0
2017-10-10T04:23:34.981Z,0
2017-10-10T04:24:56.504Z,0
2017-10-10T04:26:18.367Z,0
2017-10-10T04:27:40.332Z,0
2017-10-10T04:29:02.623Z,0
2017-10-10T04:30:24.537Z,0
2017-10-10T04:31:46.404Z,0
2017-10-10T04:33:07.924Z,0
2017-10-10T04:34:30.445Z,0
2017-10-10T04:35:52.705Z,0
2017-10-10T04:37:14.534Z,0
2017-10-10T04:38:36.430Z,0
2017-10-10T04:39:58.374Z,0
2017-10-10T04:41:20.262Z,0
2017-10-10T04:42:42.238Z,0
2017-10-10T04:44:03.805Z,0
2017-10-10T04:45:26.488Z,0
2017-10-10T04:46:48.347Z,0
2017-10-10T04:48:10.205Z,0
2017-10-10T04:49:32.067Z,0
2017-10-10T04:50:54.584Z,0
2017-10-10T04:52:16.505Z,0
2017-10-10T04:53:38.743Z,0
2017-10-10T04:55:01.299Z,0
2017-10-10T04:56:23.734Z,0
2017-10-10T04:57:45.595Z,0
2017-10-10T04:59:07.557Z,0
2017-10-10T05:00:29.633Z,0
2017-10-10T05:01:52.175Z,0
2017-10-10T05:03:14.701Z,0
2017-10-10T05:04:36.234Z,0
2017-10-10T05:05:58.092Z,0
2017-10-10T05:07:20.255Z,0
2017-10-10T05:08:42.087Z,0
2017-10-10T05:10:04.015Z,0
2017-10-10T05:11:25.885Z,0
2017-10-10T05:12:48.136Z,0
2017-10-10T05:14:10.668Z,0
2017-10-10T05:15:33.426Z,0
2017-10-10T05:16:55.637Z,0
2017-10-10T05:18:17.625Z,0
2017-10-10T05:19:39.508Z,0
2017-10-10T05:21:01.355Z,0
2017-10-10T05:22:23.561Z,0
2017-10-10T05:23:45.817Z,0
2017-10-10T05:25:08.009Z,0
2017-10-10T05:26:29.853Z,0
2017-10-10T05:27:52.074Z,0
2017-10-10T05:29:13.988Z,0
2017-10-10T05:30:36.675Z,0
2017-10-10T05:31:58.884Z,0
2017-10-10T05:33:20.718Z,0
2017-10-10T05:34:42.610Z,0
2017-10-10T05:36:04.124Z,0
2017-10-10T05:37:26.298Z,0
2017-10-10T05:38:48.482Z,0
2017-10-10T05:40:10.688Z,0
2017-10-10T05:41:32.655Z,0
2017-10-10T05:42:54.174Z,0
2017-10-10T05:44:15.681Z,0
2017-10-10T05:45:37.458Z,0
2017-10-10T05:46:59.632Z,0
2017-10-10T05:48:21.484Z,0
2017-10-10T05:49:43.723Z,0
2017-10-10T05:51:05.252Z,0
2017-10-10T05:52:27.453Z,0
2017-10-10T05:53:49.645Z,0
2017-10-10T05:55:11.845Z,5
2017-10-10T05:56:33.725Z,0
2017-10-10T05:57:55.938Z,0
2017-10-10T05:59:17.460Z,5
2017-10-10T06:00:39.726Z,5
2017-10-10T06:02:01.916Z,5
2017-10-10T06:03:24.433Z,5
2017-10-10T06:04:46.278Z,5
2017-10-10T06:06:08.505Z,5
2017-10-10T06:07:31.356Z,10
2017-10-10T06:08:53.575Z,10
2017-10-10T06:10:15.760Z,10
2017-10-10T06:11:37.283Z,15
2017-10-10T06:12:59.483Z,15
2017-10-10T06:14:21.327Z,15
2017-10-10T06:15:43.522Z,10
2017-10-10T06:17:05.029Z,10
2017-10-10T06:18:27.255Z,5
2017-10-10T06:19:49.435Z,5
2017-10-10T06:21:10.956Z,5
2017-10-10T06:22:32.141Z,10
2017-10-10T06:23:54.694Z,10
2017-10-10T06:25:16.567Z,10
2017-10-10T06:26:38.445Z,10
2017-10-10T06:28:00.686Z,10
2017-10-10T06:29:22.529Z,10
2017-10-10T06:30:44.379Z,10
2017-10-10T06:32:06.555Z,10
2017-10-10T06:33:28.074Z,10
2017-10-10T06:34:50.272Z,10
2017-10-10T06:36:11.795Z,10
2017-10-10T06:37:33.986Z,10
2017-10-10T06:38:56.175Z,10
2017-10-10T06:40:18.737Z,10
2017-10-10T06:41:40.945Z,10
2017-10-10T06:43:02.936Z,10
2017-10-10T06:44:24.465Z,10
2017-10-10T06:45:46.094Z,10
2017-10-10T06:47:08.274Z,10
2017-10-10T06:48:30.226Z,15
2017-10-10T06:49:52.467Z,15
2017-10-10T06:51:14.346Z,15
2017-10-10T06:52:36.546Z,20
2017-10-10T06:53:57.734Z,20
2017-10-10T06:55:19.578Z,25
2017-10-10T06:56:41.745Z,25
2017-10-10T06:58:04.077Z,25
2017-10-10T06:59:25.595Z,35
2017-10-10T07:00:47.786Z,35
2017-10-10T07:02:10.468Z,35
2017-10-10T07:03:32.776Z,35
2017-10-10T07:04:54.946Z,35
2017-10-10T07:06:17.466Z,40
2017-10-10T07:07:40.405Z,40
2017-10-10T07:09:02.668Z,40
2017-10-10T07:10:24.604Z,35
2017-10-10T07:11:46.867Z,45
2017-10-10T07:13:09.472Z,45
2017-10-10T07:14:32.073Z,40
2017-10-10T07:15:54.600Z,30
2017-10-10T07:17:17.129Z,30
2017-10-10T07:18:39.576Z,30
2017-10-10T07:20:01.443Z,25
2017-10-10T07:21:23.775Z,25
2017-10-10T07:22:45.306Z,20
2017-10-10T07:24:07.160Z,20
2017-10-10T07:25:29.976Z,25
2017-10-10T07:26:52.002Z,35
2017-10-10T07:28:13.526Z,40
2017-10-10T07:29:35.968Z,30
2017-10-10T07:30:58.340Z,30
2017-10-10T07:32:20.858Z,30
2017-10-10T07:33:43.386Z,40
2017-10-10T07:35:05.976Z,40
2017-10-10T07:36:27.949Z,50
2017-10-10T07:37:50.569Z,35
2017-10-10T07:39:13.220Z,40
2017-10-10T07:40:35.756Z,35
2017-10-10T07:41:58.328Z,35
2017-10-10T07:43:20.193Z,40
2017-10-10T07:44:42.047Z,45
2017-10-10T07:46:04.888Z,40
2017-10-10T07:47:27.426Z,40
2017-10-10T07:48:49.944Z,35
2017-10-10T07:50:12.187Z,35
2017-10-10T07:51:34.386Z,30
2017-10-10T07:52:56.574Z,35
2017-10-10T07:54:19.300Z,35
2017-10-10T07:55:41.819Z,40
2017-10-10T07:57:03.913Z,40
2017-10-10T07:58:26.164Z,35
2017-10-10T07:59:48.484Z,60
2017-10-10T08:01:10.658Z,60
2017-10-10T08:02:33.354Z,60
2017-10-10T08:03:55.227Z,60
2017-10-10T08:05:17.410Z,55
2017-10-10T08:06:39.596Z,55
2017-10-10T08:08:01.517Z,50
2017-10-10T08:09:23.743Z,45
2017-10-10T08:10:45.599Z,45
2017-10-10T08:12:07.811Z,45
2017-10-10T08:13:30.296Z,65
2017-10-10T08:14:52.497Z,80
2017-10-10T08:16:14.686Z,90
2017-10-10T08:17:36.889Z,100
2017-10-10T08:18:59.106Z,105
2017-10-10T08:20:21.077Z,75
2017-10-10T08:21:43.278Z,80
2017-10-10T08:23:05.115Z,95
2017-10-10T08:24:27.692Z,110
2017-10-10T08:25:49.904Z,135
2017-10-10T08:27:11.451Z,145
2017-10-10T08:28:33.337Z,155
2017-10-10T08:29:55.339Z,130
2017-10-10T08:31:17.909Z,135
2017-10-10T08:32:39.806Z,145
2017-10-10T08:34:01.827Z,160
2017-10-10T08:35:23.369Z,190
2017-10-10T08:36:45.923Z,205
2017-10-10T08:38:07.792Z,270
2017-10-10T08:39:29.691Z,305
2017-10-10T08:40:52.247Z,155
2017-10-10T08:42:14.443Z,130
2017-10-10T08:43:36.311Z,145
2017-10-10T08:44:58.203Z,165
2017-10-10T08:46:20.765Z,155
2017-10-10T08:47:42.633Z,120
2017-10-10T08:49:05.076Z,170
2017-10-10T08:50:27.597Z,210
2017-10-10T08:51:49.468Z,235
2017-10-10T08:53:11.687Z,200
2017-10-10T08:54:33.875Z,180
2017-10-10T08:55:56.094Z,190
2017-10-10T08:57:18.701Z,215
2017-10-10T08:58:40.213Z,210
2017-10-10T09:00:02.468Z,225
2017-10-10T09:01:24.691Z,275
2017-10-10T09:02:47.224Z,300
2017-10-10T09:04:09.792Z,315
2017-10-10T09:05:32.001Z,285
2017-10-10T09:06:54.303Z,265
2017-10-10T09:08:16.179Z,235
2017-10-10T09:09:38.056Z,200
2017-10-10T09:11:00.280Z,180
2017-10-10T09:12:21.806Z,160
2017-10-10T09:13:44.336Z,160
2017-10-10T09:15:05.527Z,160
2017-10-10T09:16:28.185Z,150
2017-10-10T09:17:50.047Z,185
2017-10-10T09:19:12.657Z,185
2017-10-10T09:20:35.187Z,205
2017-10-10T09:21:57.498Z,230
2017-10-10T09:23:19.708Z,185
2017-10-10T09:24:42.279Z,180
2017-10-10T09:26:04.476Z,185
2017-10-10T09:27:26.766Z,175
2017-10-10T09:28:48.352Z,165
2017-10-10T09:30:11.236Z,195
2017-10-10T09:31:33.443Z,290
2017-10-10T09:32:54.973Z,290
2017-10-10T09:34:17.488Z,255
2017-10-10T09:35:39.930Z,230
2017-10-10T09:37:01.782Z,245
2017-10-10T09:38:24.385Z,245
2017-10-10T09:39:46.566Z,205
2017-10-10T09:41:09.108Z,200
2017-10-10T09:42:30.956Z,180
2017-10-10T09:43:53.488Z,185
2017-10-10T09:45:16.038Z,225
2017-10-10T09:46:38.933Z,235
2017-10-10T09:48:00.810Z,230
2017-10-10T09:49:23.082Z,225
2017-10-10T09:50:45.404Z,220
2017-10-10T09:52:08.019Z,235
2017-10-10T09:53:30.561Z,220
2017-10-10T09:54:52.792Z,235
2017-10-10T09:56:15.312Z,235
2017-10-10T09:57:37.656Z,245
2017-10-10T09:58:59.241Z,260
2017-10-10T10:00:20.767Z,255
2017-10-10T10:01:42.595Z,255
2017-10-10T10:03:05.146Z,260
2017-10-10T10:04:27.359Z,260
2017-10-10T10:05:49.912Z,230
2017-10-10T10:07:12.453Z,190
2017-10-10T10:08:35.176Z,210
2017-10-10T10:09:57.144Z,195
2017-10-10T10:11:19.019Z,155
2017-10-10T10:12:41.265Z,140
2017-10-10T10:14:03.488Z,145
2017-10-10T10:15:25.345Z,145
2017-10-10T10:16:47.551Z,145
2017-10-10T10:18:10.219Z,140
2017-10-10T10:19:32.785Z,165
2017-10-10T10:20:54.993Z,185
2017-10-10T10:22:17.261Z,210
2017-10-10T10:23:39.445Z,245
2017-10-10T10:25:01.655Z,255
2017-10-10T10:26:23.854Z,240
2017-10-10T10:27:45.744Z,200
2017-10-10T10:29:07.319Z,170
2017-10-10T10:30:30.184Z,220
2017-10-10T10:31:52.045Z,300
2017-10-10T10:33:13.935Z,315
2017-10-10T10:34:36.146Z,345
2017-10-10T10:35:59.054Z,365
2017-10-10T10:37:20.924Z,300
2017-10-10T10:38:43.134Z,235
2017-10-10T10:40:04.657Z,235
2017-10-10T10:41:26.855Z,235
2017-10-10T10:42:48.376Z,290
2017-10-10T10:44:10.579Z,275
2017-10-10T10:45:32.788Z,275
2017-10-10T10:46:55.747Z,285
2017-10-10T10:48:17.928Z,275
2017-10-10T10:49:40.554Z,270
2017-10-10T10:51:02.468Z,245
2017-10-10T10:52:24.974Z,245
2017-10-10T10:53:46.998Z,275
2017-10-10T10:55:09.234Z,270
2017-10-10T10:56:30.438Z,305
2017-10-10T10:57:52.305Z,280
2017-10-10T10:59:14.880Z,235
2017-10-10T11:00:37.443Z,305
2017-10-10T11:01:59.976Z,330
2017-10-10T11:03:22.523Z,320
2017-10-10T11:04:44.058Z,270
2017-10-10T11:06:06.237Z,295
2017-10-10T11:07:28.865Z,300
2017-10-10T11:08:51.386Z,320
2017-10-10T11:10:13.248Z,345
2017-10-10T11:11:35.446Z,325
2017-10-10T11:12:57.985Z,320
2017-10-10T11:14:20.537Z,345
2017-10-10T11:15:43.225Z,360
2017-10-10T11:17:05.749Z,330
2017-10-10T11:18:28.348Z,270
2017-10-10T11:19:50.538Z,260
2017-10-10T11:21:12.426Z,250
2017-10-10T11:22:34.328Z,300
2017-10-10T11:23:56.852Z,375
2017-10-10T11:25:19.446Z,425
2017-10-10T11:26:41.650Z,445
2017-10-10T11:28:03.841Z,430
2017-10-10T11:29:26.405Z,410
2017-10-10T11:30:48.059Z,395
2017-10-10T11:32:10.031Z,380
2017-10-10T11:33:31.921Z,350
2017-10-10T11:34:54.134Z,305
2017-10-10T11:36:16.965Z,375
2017-10-10T11:37:39.198Z,330
2017-10-10T11:39:01.080Z,255
2017-10-10T11:40:23.674Z,230
2017-10-10T11:41:45.906Z,165
2017-10-10T11:43:07.778Z,150
2017-10-10T11:44:29.304Z,130
2017-10-10T11:45:51.838Z,165
2017-10-10T11:47:14.510Z,160
2017-10-10T11:48:36.104Z,135
2017-10-10T11:49:58.634Z,145
2017-10-10T11:51:20.833Z,225
2017-10-10T11:52:42.035Z,220
2017-10-10T11:54:04.255Z,195
2017-10-10T11:55:26.244Z,160
2017-10-10T11:56:48.528Z,145
2017-10-10T11:58:10.724Z,165
2017-10-10T11:59:31.920Z,165
2017-10-10T12:00:54.215Z,115
2017-10-10T12:02:16.403Z,95
2017-10-10T12:03:39.012Z,155
2017-10-10T12:05:00.882Z,190
2017-10-10T12:06:23.081Z,250
2017-10-10T12:07:45.321Z,245
2017-10-10T12:09:07.887Z,220
2017-10-10T12:10:30.426Z,200
2017-10-10T12:11:52.285Z,200
2017-10-10T12:13:13.823Z,215
2017-10-10T12:14:36.482Z,240
2017-10-10T12:15:58.025Z,245
2017-10-10T12:17:20.252Z,250
2017-10-10T12:18:42.801Z,270
2017-10-10T12:20:05.455Z,270
2017-10-10T12:21:27.661Z,245
2017-10-10T12:22:49.854Z,190
2017-10-10T12:24:12.412Z,140
2017-10-10T12:25:35.466Z,100
2017-10-10T12:26:57.665Z,100
2017-10-10T12:28:20.217Z,75
2017-10-10T12:29:42.433Z,90
2017-10-10T12:31:05.015Z,90
2017-10-10T12:32:27.337Z,85
2017-10-10T12:33:49.178Z,65
2017-10-10T12:35:10.707Z,85
2017-10-10T12:36:33.587Z,95
2017-10-10T12:37:56.169Z,90
2017-10-10T12:39:18.409Z,135
2017-10-10T12:40:40.595Z,180
2017-10-10T12:42:03.473Z,220
2017-10-10T12:43:25.343Z,245
2017-10-10T12:44:47.204Z,240
2017-10-10T12:46:08.743Z,200
2017-10-10T12:47:31.254Z,170
2017-10-10T12:48:53.554Z,150
2017-10-10T12:50:15.428Z,145
2017-10-10T12:51:37.958Z,130
2017-10-10T12:53:00.492Z,125
2017-10-10T12:54:22.705Z,135
2017-10-10T12:55:45.040Z,145
2017-10-10T12:57:07.666Z,185
2017-10-10T12:58:30.214Z,175
2017-10-10T12:59:52.779Z,160
2017-10-10T13:01:14.636Z,140
2017-10-10T13:02:36.284Z,95
2017-10-10T13:03:58.869Z,100
2017-10-10T13:05:20.055Z,105
2017-10-10T13:06:41.974Z,85
2017-10-10T13:08:04.173Z,110
2017-10-10T13:09:26.095Z,95
2017-10-10T13:10:48.288Z,75
2017-10-10T13:12:10.205Z,70
2017-10-10T13:13:32.406Z,65
2017-10-10T13:14:54.943Z,80
2017-10-10T13:16:17.505Z,80
2017-10-10T13:17:40.031Z,75
2017-10-10T13:19:02.557Z,105
2017-10-10T13:20:25.106Z,95
2017-10-10T13:21:47.304Z,105
2017-10-10T13:23:09.487Z,90
2017-10-10T13:24:31.684Z,70
2017-10-10T13:25:53.894Z,60
2017-10-10T13:27:15.433Z,60
2017-10-10T13:28:37.675Z,60
2017-10-10T13:29:59.876Z,55
2017-10-10T13:31:22.434Z,70
2017-10-10T13:32:45.205Z,70
2017-10-10T13:34:07.454Z,60
2017-10-10T13:35:29.646Z,55
2017-10-10T13:36:51.845Z,45
2017-10-10T13:38:14.465Z,55
2017-10-10T13:39:37.068Z,65
2017-10-10T13:40:59.252Z,75
2017-10-10T13:42:21.094Z,105
2017-10-10T13:43:42.971Z,100
2017-10-10T13:45:04.834Z,135
2017-10-10T13:46:27.067Z,130
2017-10-10T13:47:49.633Z,115
2017-10-10T13:49:11.595Z,105
2017-10-10T13:50:33.955Z,110
2017-10-10T13:51:56.157Z,125
2017-10-10T13:53:18.688Z,145
2017-10-10T13:54:40.875Z,135
2017-10-10T13:56:03.059Z,140
2017-10-10T13:57:25.051Z,145
2017-10-10T13:58:47.678Z,140
2017-10-10T14:00:10.194Z,110
2017-10-10T14:01:32.077Z,125
2017-10-10T14:02:54.275Z,120
2017-10-10T14:04:16.155Z,125
2017-10-10T14:05:38.383Z,155
2017-10-10T14:07:00.575Z,150
2017-10-10T14:08:22.439Z,145
2017-10-10T14:09:45.408Z,155
2017-10-10T14:11:07.266Z,150
2017-10-10T14:12:29.498Z,130
2017-10-10T14:13:52.027Z,115
2017-10-10T14:15:14.236Z,110
2017-10-10T14:16:36.760Z,100
2017-10-10T14:17:59.013Z,105
2017-10-10T14:19:21.226Z,100
2017-10-10T14:20:44.134Z,100
2017-10-10T14:22:06.324Z,110
2017-10-10T14:23:28.186Z,110
2017-10-10T14:24:50.735Z,105
2017-10-10T14:26:12.918Z,85
2017-10-10T14:27:34.458Z,85
2017-10-10T14:28:56.385Z,70
2017-10-10T14:30:18.597Z,70
2017-10-10T14:31:41.108Z,75
2017-10-10T14:33:03.388Z,70
2017-10-10T14:34:25.992Z,80
2017-10-10T14:35:47.515Z,55
2017-10-10T14:37:10.407Z,60
2017-10-10T14:38:32.673Z,55
2017-10-10T14:39:54.676Z,50
2017-10-10T14:41:16.928Z,55
2017-10-10T14:42:39.498Z,55
2017-10-10T14:44:01.365Z,55
2017-10-10T14:45:23.898Z,45
2017-10-10T14:46:46.185Z,45
2017-10-10T14:48:09.060Z,50
2017-10-10T14:49:31.598Z,50
2017-10-10T14:50:53.556Z,50
2017-10-10T14:52:16.276Z,50
2017-10-10T14:53:39.092Z,45
2017-10-10T14:55:01.766Z,40
2017-10-10T14:56:24.304Z,55
2017-10-10T14:57:46.645Z,50
2017-10-10T14:59:09.245Z,40
2017-10-10T15:00:31.446Z,30
2017-10-10T15:01:53.637Z,35
2017-10-10T15:03:15.906Z,35
2017-10-10T15:04:38.125Z,35
2017-10-10T15:06:00.324Z,40
2017-10-10T15:07:22.967Z,45
2017-10-10T15:08:45.544Z,55
2017-10-10T15:10:07.756Z,55
2017-10-10T15:11:29.988Z,55
2017-10-10T15:12:52.526Z,55
2017-10-10T15:14:14.736Z,45
2017-10-10T15:15:37.366Z,40
2017-10-10T15:16:59.549Z,40
2017-10-10T15:18:21.434Z,35
2017-10-10T15:19:43.701Z,35
2017-10-10T15:21:06.160Z,40
2017-10-10T15:22:28.814Z,35
2017-10-10T15:23:50.847Z,40
2017-10-10T15:25:13.393Z,30
2017-10-10T15:26:35.961Z,20
2017-10-10T15:27:58.172Z,20
2017-10-10T15:29:20.075Z,25
2017-10-10T15:30:42.726Z,25
2017-10-10T15:32:04.596Z,25
2017-10-10T15:33:26.816Z,25
2017-10-10T15:34:49.098Z,25
2017-10-10T15:36:11.328Z,25
2017-10-10T15:37:33.887Z,25
2017-10-10T15:38:55.084Z,20
2017-10-10T15:40:16.945Z,20
2017-10-10T15:41:39.185Z,20
2017-10-10T15:43:01.396Z,15
2017-10-10T15:44:23.618Z,20
2017-10-10T15:45:45.149Z,15
2017-10-10T15:47:07.686Z,15
2017-10-10T15:48:29.921Z,15
2017-10-10T15:49:51.860Z,15
2017-10-10T15:51:13.421Z,15
2017-10-10T15:52:35.265Z,20
2017-10-10T15:53:58.117Z,15
2017-10-10T15:55:20.655Z,15
2017-10-10T15:56:43.195Z,20
2017-10-10T15:58:05.407Z,20
2017-10-10T15:59:27.305Z,15
2017-10-10T16:00:49.195Z,15
2017-10-10T16:02:11.418Z,15
2017-10-10T16:03:33.995Z,10
2017-10-10T16:04:56.555Z,10
2017-10-10T16:06:19.105Z,10
2017-10-10T16:07:40.642Z,10
2017-10-10T16:09:02.884Z,5
2017-10-10T16:10:24.761Z,5
2017-10-10T16:11:47.328Z,5
2017-10-10T16:13:09.934Z,5
2017-10-10T16:14:32.139Z,5
2017-10-10T16:15:54.729Z,5
2017-10-10T16:17:16.594Z,5
2017-10-10T16:18:38.483Z,5
2017-10-10T16:20:00.700Z,5
2017-10-10T16:21:23.283Z,0
2017-10-10T16:22:45.268Z,0
2017-10-10T16:24:07.489Z,0
2017-10-10T16:25:29.405Z,0
2017-10-10T16:26:51.613Z,0
2017-10-10T16:28:13.567Z,0
2017-10-10T16:29:35.147Z,0
2017-10-10T16:30:57.026Z,0
2017-10-10T16:32:19.616Z,0
2017-10-10T16:33:42.013Z,5
2017-10-10T16:35:03.883Z,5
2017-10-10T16:36:25.769Z,5
2017-10-10T16:37:48.413Z,0
2017-10-10T16:39:10.618Z,0
2017-10-10T16:40:32.474Z,0
2017-10-10T16:41:55.011Z,0
2017-10-10T16:43:17.892Z,0
2017-10-10T16:44:40.103Z,0
2017-10-10T16:46:02.325Z,0
2017-10-10T16:47:24.525Z,0
2017-10-10T16:48:46.735Z,0
2017-10-10T16:50:09.288Z,0
2017-10-10T16:51:31.485Z,0
2017-10-10T16:52:53.355Z,0
2017-10-10T16:54:15.580Z,0
2017-10-10T16:55:37.518Z,0
2017-10-10T16:56:59.384Z,0
2017-10-10T16:58:21.967Z,0
2017-10-10T16:59:44.463Z,0
2017-10-10T17:01:07.032Z,0
2017-10-10T17:02:29.633Z,0
2017-10-10T17:03:52.145Z,0
2017-10-10T17:05:14.663Z,0
2017-10-10T17:06:36.873Z,0
2017-10-10T17:07:59.435Z,0
2017-10-10T17:09:21.974Z,0
2017-10-10T17:10:44.523Z,0
2017-10-10T17:12:06.833Z,0
2017-10-10T17:13:29.038Z,0
2017-10-10T17:14:51.608Z,0
2017-10-10T17:16:13.844Z,0
2017-10-10T17:17:36.103Z,0
2017-10-10T17:18:57.993Z,0
2017-10-10T17:20:19.883Z,0
2017-10-10T17:21:41.762Z,0
2017-10-10T17:23:04.316Z,0
2017-10-10T17:24:26.865Z,0
2017-10-10T17:25:49.110Z,0
2017-10-10T17:27:10.297Z,0
2017-10-10T17:28:32.855Z,0
2017-10-10T17:29:55.173Z,0
2017-10-10T17:31:17.750Z,0
2017-10-10T17:32:39.654Z,0
2017-10-10T17:34:01.897Z,0
2017-10-10T17:35:24.105Z,0
2017-10-10T17:36:46.310Z,0
2017-10-10T17:38:09.054Z,0
2017-10-10T17:39:31.265Z,0
2017-10-10T17:40:53.509Z,0
2017-10-10T17:42:15.729Z,0
2017-10-10T17:43:38.026Z,0
2017-10-10T17:45:00.353Z,0
2017-10-10T17:46:22.912Z,0
2017-10-10T17:47:45.166Z,0
2017-10-10T17:49:07.394Z,0
2017-10-10T17:50:29.615Z,0
2017-10-10T17:51:51.816Z,0
2017-10-10T17:53:14.069Z,0
2017-10-10T17:54:36.733Z,0
2017-10-10T17:55:59.341Z,0
2017-10-10T17:57:21.284Z,0
2017-10-10T17:58:43.535Z,0
2017-10-10T18:00:05.763Z,0
2017-10-10T18:01:27.973Z,0
2017-10-10T18:02:50.184Z,0
2017-10-10T18:04:12.498Z,0
2017-10-10T18:05:35.106Z,0
2017-10-10T18:06:57.684Z,0
2017-10-10T18:08:19.914Z,0
2017-10-10T18:09:42.460Z,0
2017-10-10T18:11:05.068Z,0
2017-10-10T18:12:27.014Z,0
2017-10-10T18:13:48.874Z,0
2017-10-10T18:15:11.154Z,0
2017-10-10T18:16:33.553Z,0
2017-10-10T18:17:55.806Z,0
2017-10-10T18:19:18.055Z,0
2017-10-10T18:20:40.283Z,0
2017-10-10T18:22:02.321Z,0
2017-10-10T18:23:24.881Z,0
2017-10-10T18:24:47.466Z,0
2017-10-10T18:26:10.131Z,0
2017-10-10T18:27:31.412Z,0
2017-10-10T18:28:53.964Z,0
2017-10-10T18:30:16.165Z,0
2017-10-10T18:31:38.427Z,0
2017-10-10T18:33:01.030Z,0
2017-10-10T18:34:23.578Z,0
2017-10-10T18:35:45.794Z,0
2017-10-10T18:37:08.378Z,0
2017-10-10T18:38:31.206Z,0
2017-10-10T18:39:53.855Z,0
2017-10-10T18:41:15.066Z,0
2017-10-10T18:42:37.688Z,0
2017-10-10T18:44:00.283Z,0
2017-10-10T18:45:22.959Z,0
2017-10-10T18:46:45.552Z,0
2017-10-10T18:48:08.157Z,0
2017-10-10T18:49:30.365Z,0
2017-10-10T18:50:52.226Z,0
2017-10-10T18:52:14.096Z,0
2017-10-10T18:53:36.648Z,0
2017-10-10T18:54:59.244Z,0
2017-10-10T18:56:21.611Z,0
2017-10-10T18:57:43.650Z,0
2017-10-10T18:59:05.637Z,0
2017-10-10T19:00:27.948Z,0
2017-10-10T19:01:49.862Z,0
2017-10-10T19:03:12.414Z,0
2017-10-10T19:04:35.039Z,0
2017-10-10T19:05:57.327Z,0
2017-10-10T19:07:19.875Z,0
2017-10-10T19:08:42.512Z,0
2017-10-10T19:10:04.425Z,0
2017-10-10T19:11:26.317Z,0
2017-10-10T19:12:48.952Z,0
2017-10-10T19:14:11.544Z,0
2017-10-10T19:15:33.476Z,0
2017-10-10T19:16:56.027Z,0
2017-10-10T19:18:18.677Z,0
2017-10-10T19:19:41.295Z,0
2017-10-10T19:21:02.846Z,0
2017-10-10T19:22:25.109Z,0
2017-10-10T19:23:47.329Z,0
2017-10-10T19:25:08.894Z,0
2017-10-10T19:26:31.118Z,0
2017-10-10T19:27:53.008Z,0
2017-10-10T19:29:15.561Z,0
2017-10-10T19:30:37.426Z,0
2017-10-10T19:31:59.677Z,0
2017-10-10T19:33:22.263Z,0
2017-10-10T19:34:44.800Z,0
2017-10-10T19:36:06.996Z,0
2017-10-10T19:37:29.224Z,0
2017-10-10T19:38:51.479Z,0
2017-10-10T19:40:13.719Z,0
2017-10-10T19:41:36.416Z,0